AirNav   Duncan Aviation - Near you to keep you flying
 
 1034 users online  

2IL9 Meadow Creek Airport
Monee, Illinois, USA

GOING TO MONEE?


FAA INFORMATION EFFECTIVE 30 DECEMBER 2021

Location

FAA Identifier: 2IL9
Lat/Long: 41-26-00.0300N 087-46-52.8700W
41-26.000500N 087-46.881167W
41.4333417,-87.7813528
(estimated)
Elevation: 780 ft. / 238 m (estimated)
Variation: 01W (1990)
From city: 1 mile W of MONEE, IL
Time zone: UTC -6 (UTC -5 during Daylight Saving Time)
Zip code: 60449

Airport Operations

Airport use: Private use. Permission required prior to landing
Activation date: 09/1990
Control tower: no
ARTCC: CHICAGO CENTER
FSS: KANKAKEE FLIGHT SERVICE STATION
Attendance: UNATNDD
Wind indicator: yes
Segmented circle: no
Lights: SS-SR

Airport Communications

WX AWOS-AV at C56 (6 nm SE): 119.125 (708-534-5256)
WX AWOS-3 at IGQ (13 nm NE): 119.275 (708-895-9526)
WX AWOS-3 at LOT (18 nm NW): 118.525 (815-588-4802)
WX AWOS-3 at JOT (18 nm W): 119.975 (815-730-9560)
WX AWOS-3PT at GYY (20 nm NE): 134.575 (219-944-0010)

Nearby radio navigation aids

VOR radial/distance  VOR name  Freq  Var
EONr001/9.8PEOTONE VORTAC113.2002E
CGTr242/10.5CHICAGO HEIGHTS VORTAC114.2002E
JOTr104/25.1JOLIET VOR/DME112.3002E
DPAr135/37.4DUPAGE VOR/DME108.4002E

Airport Services

Runway Information

Runway 4/22

Dimensions: 3400 x 40 ft. / 1036 x 12 m
Surface: asphalt
Runway edge lights: low intensity
RUNWAY 4  RUNWAY 22
Latitude: 41-25.784333N41-26.216667N
Longitude: 087-47.117167W087-46.645167W
Elevation: 770.0 ft.780.0 ft.
Traffic pattern: leftleft
Runway heading: 040 magnetic, 039 true220 magnetic, 219 true
Runway end identifier lights: yesyes

Airport Ownership and Management from official FAA records

Ownership: Privately-owned
Owner: MEADOW CREEK CORP
25245 S. DOOLITTLE DR
MONEE, IL 60449
Phone (312) 446-2163
Manager: CHRISTIAN THOMSEN
25245 S. DOOLITTLE DR
MONEE, IL 60449
Phone (312) 446-2163

Airport Operational Statistics

Aircraft based on the field: 13
Single engine airplanes: 12
Helicopters: 1
    

Additional Remarks

FOR CD CTC CHICAGO APCH AT 847-289-0926.

Instrument Procedures

There are no published instrument procedures at 2IL9.

Some nearby airports with instrument procedures:

C56 - Bult Field Airport (6 nm SE)
KIGQ - Lansing Municipal Airport (13 nm NE)
KLOT - Lewis University Airport (18 nm NW)
05C - Griffith-Merrillville Airport (18 nm E)
KGYY - Gary/Chicago International Airport (20 nm NE)
 
Loc | Ops | Rwys | IFR | FBO | Links
Com | Nav | Svcs | Stats | Notes
Area around 2IL9 (Meadow Creek Airport)
 
Road maps at: MapQuest Bing Google
 
Aerial photo
WARNING: Photo may not be current or correct
Aerial photo of 2IL9 (Meadow Creek Airport)
Photo taken 18-Mar-2007

Do you have a better or more recent aerial photo of Meadow Creek Airport that you would like to share? If so, please send us your photo.

 
Sectional chart

 
Airport distance calculator
Flying to Meadow Creek Airport? Find the distance to fly.

From to 2IL9

Sunrise and sunset
Times for 16-Jan-2022
 Local
(UTC-6)
 Zulu
(UTC)
Morning civil twilight06:4512:45
Sunrise07:1613:16
Sunset16:4622:46
Evening civil twilight17:1723:17

Current date and time
Zulu (UTC)  16-Jan-2022 19:42:55
Local (UTC-6)  16-Jan-2022 13:42:55
 
METAR
KIGQ 
13nm NE 
161915Z AUTO 00000KT 10SM CLR M03/M10 A2986 RMK AO2 T10281102
KJOT 
18nm W 
161915Z AUTO 00000KT 10SM CLR M03/M09 A2986 RMK AO2 T10261094
KLOT 
18nm NW 
161910Z AUTO 00000KT 10SM CLR M04/M09 A2985 RMK AO2 T10361091
KGYY 
20nm NE 
161845Z 02003KT 10SM CLR M03/M10 A2989
KMDW 
21nm N 
161853Z 05003KT 10SM FEW150 FEW200 BKN250 M02/M10 A2987 RMK AO2 SLP129 T10221100 $
KIKK 
22nm S 
161918Z AUTO 00000KT 10SM CLR M04/M08 A2986 RMK AO2
TAF
KGYY 
20nm NE 
161720Z 1618/1718 VRB04KT P6SM FEW200 FM162300 25008KT P6SM SCT045 OVC070 TEMPO 1701/1704 3SM -SHSN OVC020 FM170400 31011KT P6SM BKN025 OVC035 FM170900 32012G20KT P6SM BKN020
KMDW 
21nm N 
161720Z 1618/1724 22007KT P6SM SCT200 FM162300 25008KT P6SM SCT045 OVC070 TEMPO 1700/1703 3SM -SHSN OVC020 FM170300 31011KT P6SM BKN025 OVC035 FM170900 32012G20KT P6SM BKN020 FM171400 32014G23KT P6SM BKN035 FM171800 32013KT P6SM SCT035
NOTAMs
Click for the latest NOTAMs
NOTAMs are issued by the DoD/FAA and will open in a separate window not controlled by AirNav.

 

 
 

Would you like to see your business listed on this page?

 If your business provides an interesting product or service to pilots, flight crews, aircraft, or users of the Meadow Creek Airport, you should consider listing it here.  To start the listing process, click on the button below
 
Add a business
 

Other Pages about Meadow Creek Airport

www.meadowcreekairpark.com
 
Update a link
 
Copyright © AirNav, LLC. All rights reserved. Privacy Policy  Contact